sensor_id;sensor_type;location;lat;lon;timestamp;P1;durP1;ratioP1;P2;durP2;ratioP2
9665;SDS011;4871;52.004;5.924;2023-08-17T00:00:01;4.90;;;3.80;;
9665;SDS011;4871;52.004;5.924;2023-08-17T00:01:00;4.90;;;3.80;;
9665;SDS011;4871;52.004;5.924;2023-08-17T00:02:00;4.90;;;3.80;;
9665;SDS011;4871;52.004;5.924;2023-08-17T00:03:00;4.90;;;3.80;;
9665;SDS011;4871;52.004;5.924;2023-08-17T00:04:01;4.90;;;3.80;;
9665;SDS011;4871;52.004;5.924;2023-08-17T00:05:00;4.90;;;3.80;;
9665;SDS011;4871;52.004;5.924;2023-08-17T00:06:00;4.90;;;3.80;;
9665;SDS011;4871;52.004;5.924;2023-08-17T00:07:00;4.90;;;3.80;;
9665;SDS011;4871;52.004;5.924;2023-08-17T00:08:01;4.90;;;3.80;;
9665;SDS011;4871;52.004;5.924;2023-08-17T00:09:01;4.90;;;3.80;;
9665;SDS011;4871;52.004;5.924;2023-08-17T00:10:01;4.90;;;3.80;;
9665;SDS011;4871;52.004;5.924;2023-08-17T00:11:00;4.90;;;3.80;;
9665;SDS011;4871;52.004;5.924;2023-08-17T00:12:01;4.90;;;3.80;;
9665;SDS011;4871;52.004;5.924;2023-08-17T00:13:02;4.90;;;3.80;;
9665;SDS011;4871;52.004;5.924;2023-08-17T00:14:00;4.90;;;3.80;;
9665;SDS011;4871;52.004;5.924;2023-08-17T00:15:00;4.90;;;3.80;;
9665;SDS011;4871;52.004;5.924;2023-08-17T00:16:01;4.90;;;3.80;;
9665;SDS011;4871;52.004;5.924;2023-08-17T00:17:00;4.90;;;3.80;;
9665;SDS011;4871;52.004;5.924;2023-08-17T00:18:00;4.90;;;3.80;;
9665;SDS011;4871;52.004;5.924;2023-08-17T00:19:00;4.90;;;3.80;;
9665;SDS011;4871;52.004;5.924;2023-08-17T00:20:00;4.90;;;3.80;;
9665;SDS011;4871;52.004;5.924;2023-08-17T00:21:00;4.90;;;3.80;;
9665;SDS011;4871;52.004;5.924;2023-08-17T00:22:01;4.20;;;3.50;;
9665;SDS011;4871;52.004;5.924;2023-08-17T00:23:00;4.20;;;3.50;;
9665;SDS011;4871;52.004;5.924;2023-08-17T00:24:00;4.20;;;3.50;;
9665;SDS011;4871;52.004;5.924;2023-08-17T00:25:00;4.20;;;3.50;;
9665;SDS011;4871;52.004;5.924;2023-08-17T00:26:00;4.20;;;3.50;;
9665;SDS011;4871;52.004;5.924;2023-08-17T00:27:00;4.20;;;3.50;;
9665;SDS011;4871;52.004;5.924;2023-08-17T00:28:00;4.20;;;3.50;;
9665;SDS011;4871;52.004;5.924;2023-08-17T00:29:00;4.20;;;3.50;;
9665;SDS011;4871;52.004;5.924;2023-08-17T00:30:00;4.20;;;3.50;;
9665;SDS011;4871;52.004;5.924;2023-08-17T00:31:00;4.20;;;3.50;;
9665;SDS011;4871;52.004;5.924;2023-08-17T00:32:01;4.20;;;3.50;;
9665;SDS011;4871;52.004;5.924;2023-08-17T00:33:00;4.20;;;3.50;;
9665;SDS011;4871;52.004;5.924;2023-08-17T00:34:00;4.20;;;3.50;;
9665;SDS011;4871;52.004;5.924;2023-08-17T00:35:00;4.20;;;3.50;;
9665;SDS011;4871;52.004;5.924;2023-08-17T00:36:01;4.20;;;3.50;;
9665;SDS011;4871;52.004;5.924;2023-08-17T00:37:00;4.20;;;3.50;;
9665;SDS011;4871;52.004;5.924;2023-08-17T00:38:00;4.20;;;3.50;;
9665;SDS011;4871;52.004;5.924;2023-08-17T00:39:00;4.20;;;3.50;;
9665;SDS011;4871;52.004;5.924;2023-08-17T00:40:00;4.20;;;3.50;;
9665;SDS011;4871;52.004;5.924;2023-08-17T00:41:00;4.20;;;3.50;;
9665;SDS011;4871;52.004;5.924;2023-08-17T00:42:00;4.20;;;3.50;;
9665;SDS011;4871;52.004;5.924;2023-08-17T00:43:00;4.20;;;3.50;;
9665;SDS011;4871;52.004;5.924;2023-08-17T00:44:00;4.20;;;3.50;;
9665;SDS011;4871;52.004;5.924;2023-08-17T00:45:00;4.20;;;3.50;;
9665;SDS011;4871;52.004;5.924;2023-08-17T00:46:00;4.20;;;3.50;;
9665;SDS011;4871;52.004;5.924;2023-08-17T00:47:00;4.20;;;3.50;;
9665;SDS011;4871;52.004;5.924;2023-08-17T00:48:00;4.20;;;3.50;;
9665;SDS011;4871;52.004;5.924;2023-08-17T00:49:00;4.20;;;3.50;;
9665;SDS011;4871;52.004;5.924;2023-08-17T00:50:00;4.20;;;3.50;;
9665;SDS011;4871;52.004;5.924;2023-08-17T00:51:00;4.20;;;3.50;;
9665;SDS011;4871;52.004;5.924;2023-08-17T00:52:00;4.50;;;3.40;;
9665;SDS011;4871;52.004;5.924;2023-08-17T00:53:00;4.50;;;3.40;;
9665;SDS011;4871;52.004;5.924;2023-08-17T00:54:00;4.50;;;3.40;;
9665;SDS011;4871;52.004;5.924;2023-08-17T00:55:00;4.50;;;3.40;;
9665;SDS011;4871;52.004;5.924;2023-08-17T00:56:01;4.50;;;3.40;;
9665;SDS011;4871;52.004;5.924;2023-08-17T00:57:00;4.50;;;3.40;;
9665;SDS011;4871;52.004;5.924;2023-08-17T00:58:00;4.50;;;3.40;;
9665;SDS011;4871;52.004;5.924;2023-08-17T00:59:00;4.50;;;3.40;;
9665;SDS011;4871;52.004;5.924;2023-08-17T01:00:00;4.50;;;3.40;;
9665;SDS011;4871;52.004;5.924;2023-08-17T01:01:00;4.50;;;3.40;;
9665;SDS011;4871;52.004;5.924;2023-08-17T01:02:00;4.50;;;3.40;;
9665;SDS011;4871;52.004;5.924;2023-08-17T01:03:00;4.50;;;3.40;;
9665;SDS011;4871;52.004;5.924;2023-08-17T01:04:00;4.50;;;3.40;;
9665;SDS011;4871;52.004;5.924;2023-08-17T01:05:00;4.50;;;3.40;;
9665;SDS011;4871;52.004;5.924;2023-08-17T01:06:02;4.50;;;3.40;;
9665;SDS011;4871;52.004;5.924;2023-08-17T01:07:00;4.50;;;3.40;;
9665;SDS011;4871;52.004;5.924;2023-08-17T01:08:00;4.50;;;3.40;;
9665;SDS011;4871;52.004;5.924;2023-08-17T01:09:00;4.50;;;3.40;;
9665;SDS011;4871;52.004;5.924;2023-08-17T01:10:00;4.50;;;3.40;;
9665;SDS011;4871;52.004;5.924;2023-08-17T01:11:02;4.50;;;3.40;;
9665;SDS011;4871;52.004;5.924;2023-08-17T01:12:03;4.50;;;3.40;;
9665;SDS011;4871;52.004;5.924;2023-08-17T01:13:00;4.50;;;3.40;;
9665;SDS011;4871;52.004;5.924;2023-08-17T01:14:02;4.50;;;3.40;;
9665;SDS011;4871;52.004;5.924;2023-08-17T01:15:02;4.50;;;3.40;;
9665;SDS011;4871;52.004;5.924;2023-08-17T01:16:01;4.50;;;3.40;;
9665;SDS011;4871;52.004;5.924;2023-08-17T01:17:00;4.50;;;3.40;;
9665;SDS011;4871;52.004;5.924;2023-08-17T01:18:03;4.50;;;3.40;;
9665;SDS011;4871;52.004;5.924;2023-08-17T01:19:00;4.50;;;3.40;;
9665;SDS011;4871;52.004;5.924;2023-08-17T01:20:00;4.50;;;3.40;;
9665;SDS011;4871;52.004;5.924;2023-08-17T01:21:00;4.50;;;3.40;;
9665;SDS011;4871;52.004;5.924;2023-08-17T01:22:03;4.80;;;2.60;;
9665;SDS011;4871;52.004;5.924;2023-08-17T01:23:03;4.80;;;2.60;;
9665;SDS011;4871;52.004;5.924;2023-08-17T01:24:02;4.80;;;2.60;;
9665;SDS011;4871;52.004;5.924;2023-08-17T01:25:00;4.80;;;2.60;;
9665;SDS011;4871;52.004;5.924;2023-08-17T01:26:01;4.80;;;2.60;;
9665;SDS011;4871;52.004;5.924;2023-08-17T01:27:00;4.80;;;2.60;;
9665;SDS011;4871;52.004;5.924;2023-08-17T01:28:00;4.80;;;2.60;;
9665;SDS011;4871;52.004;5.924;2023-08-17T01:29:00;4.80;;;2.60;;
9665;SDS011;4871;52.004;5.924;2023-08-17T01:30:00;4.80;;;2.60;;
9665;SDS011;4871;52.004;5.924;2023-08-17T01:31:01;4.80;;;2.60;;
9665;SDS011;4871;52.004;5.924;2023-08-17T01:32:02;4.80;;;2.60;;
9665;SDS011;4871;52.004;5.924;2023-08-17T01:33:01;4.80;;;2.60;;
9665;SDS011;4871;52.004;5.924;2023-08-17T01:34:03;4.80;;;2.60;;
9665;SDS011;4871;52.004;5.924;2023-08-17T01:35:01;4.80;;;2.60;;
9665;SDS011;4871;52.004;5.924;2023-08-17T01:36:01;4.80;;;2.60;;
9665;SDS011;4871;52.004;5.924;2023-08-17T01:37:01;4.80;;;2.60;;
9665;SDS011;4871;52.004;5.924;2023-08-17T01:38:02;4.80;;;2.60;;
9665;SDS011;4871;52.004;5.924;2023-08-17T01:39:00;4.80;;;2.60;;
9665;SDS011;4871;52.004;5.924;2023-08-17T01:40:00;4.80;;;2.60;;
9665;SDS011;4871;52.004;5.924;2023-08-17T01:41:01;4.80;;;2.60;;
9665;SDS011;4871;52.004;5.924;2023-08-17T01:42:00;4.80;;;2.60;;
9665;SDS011;4871;52.004;5.924;2023-08-17T01:43:00;4.80;;;2.60;;
9665;SDS011;4871;52.004;5.924;2023-08-17T01:44:00;4.80;;;2.60;;
9665;SDS011;4871;52.004;5.924;2023-08-17T01:45:00;4.80;;;2.60;;
9665;SDS011;4871;52.004;5.924;2023-08-17T01:46:01;4.80;;;2.60;;
9665;SDS011;4871;52.004;5.924;2023-08-17T01:47:00;4.80;;;2.60;;
9665;SDS011;4871;52.004;5.924;2023-08-17T01:48:00;4.80;;;2.60;;
9665;SDS011;4871;52.004;5.924;2023-08-17T01:49:00;4.80;;;2.60;;
9665;SDS011;4871;52.004;5.924;2023-08-17T01:50:01;4.80;;;2.60;;
9665;SDS011;4871;52.004;5.924;2023-08-17T01:51:00;4.80;;;2.60;;
9665;SDS011;4871;52.004;5.924;2023-08-17T01:52:01;4.00;;;2.40;;
9665;SDS011;4871;52.004;5.924;2023-08-17T01:53:00;4.00;;;2.40;;
9665;SDS011;4871;52.004;5.924;2023-08-17T01:54:00;4.00;;;2.40;;
9665;SDS011;4871;52.004;5.924;2023-08-17T01:55:00;4.00;;;2.40;;
9665;SDS011;4871;52.004;5.924;2023-08-17T01:56:00;4.00;;;2.40;;
9665;SDS011;4871;52.004;5.924;2023-08-17T01:57:00;4.00;;;2.40;;
9665;SDS011;4871;52.004;5.924;2023-08-17T01:58:00;4.00;;;2.40;;
9665;SDS011;4871;52.004;5.924;2023-08-17T01:59:00;4.00;;;2.40;;
9665;SDS011;4871;52.004;5.924;2023-08-17T02:00:00;4.00;;;2.40;;
9665;SDS011;4871;52.004;5.924;2023-08-17T02:01:00;4.00;;;2.40;;
9665;SDS011;4871;52.004;5.924;2023-08-17T02:02:00;4.00;;;2.40;;
9665;SDS011;4871;52.004;5.924;2023-08-17T02:03:00;4.00;;;2.40;;
9665;SDS011;4871;52.004;5.924;2023-08-17T02:04:02;4.00;;;2.40;;
9665;SDS011;4871;52.004;5.924;2023-08-17T02:05:00;4.00;;;2.40;;
9665;SDS011;4871;52.004;5.924;2023-08-17T02:06:00;4.00;;;2.40;;
9665;SDS011;4871;52.004;5.924;2023-08-17T02:07:00;4.00;;;2.40;;
9665;SDS011;4871;52.004;5.924;2023-08-17T02:08:00;4.00;;;2.40;;
9665;SDS011;4871;52.004;5.924;2023-08-17T02:09:00;4.00;;;2.40;;
9665;SDS011;4871;52.004;5.924;2023-08-17T02:10:00;4.00;;;2.40;;
9665;SDS011;4871;52.004;5.924;2023-08-17T02:11:00;4.00;;;2.40;;
9665;SDS011;4871;52.004;5.924;2023-08-17T02:12:00;4.00;;;2.40;;
9665;SDS011;4871;52.004;5.924;2023-08-17T02:13:00;4.00;;;2.40;;
9665;SDS011;4871;52.004;5.924;2023-08-17T02:14:00;4.00;;;2.40;;
9665;SDS011;4871;52.004;5.924;2023-08-17T02:15:00;4.00;;;2.40;;
9665;SDS011;4871;52.004;5.924;2023-08-17T02:16:00;4.00;;;2.40;;
9665;SDS011;4871;52.004;5.924;2023-08-17T02:17:00;4.00;;;2.40;;
9665;SDS011;4871;52.004;5.924;2023-08-17T02:18:00;4.00;;;2.40;;
9665;SDS011;4871;52.004;5.924;2023-08-17T02:19:00;4.00;;;2.40;;
9665;SDS011;4871;52.004;5.924;2023-08-17T02:20:00;4.00;;;2.40;;
9665;SDS011;4871;52.004;5.924;2023-08-17T02:21:00;4.00;;;2.40;;
9665;SDS011;4871;52.004;5.924;2023-08-17T02:22:01;3.60;;;2.60;;
9665;SDS011;4871;52.004;5.924;2023-08-17T02:23:00;3.60;;;2.60;;
9665;SDS011;4871;52.004;5.924;2023-08-17T02:24:00;3.60;;;2.60;;
9665;SDS011;4871;52.004;5.924;2023-08-17T02:25:00;3.60;;;2.60;;
9665;SDS011;4871;52.004;5.924;2023-08-17T02:26:00;3.60;;;2.60;;
9665;SDS011;4871;52.004;5.924;2023-08-17T02:27:00;3.60;;;2.60;;
9665;SDS011;4871;52.004;5.924;2023-08-17T02:28:00;3.60;;;2.60;;
9665;SDS011;4871;52.004;5.924;2023-08-17T02:29:00;3.60;;;2.60;;
9665;SDS011;4871;52.004;5.924;2023-08-17T02:30:00;3.60;;;2.60;;
9665;SDS011;4871;52.004;5.924;2023-08-17T02:31:00;3.60;;;2.60;;
9665;SDS011;4871;52.004;5.924;2023-08-17T02:32:00;3.60;;;2.60;;
9665;SDS011;4871;52.004;5.924;2023-08-17T02:33:00;3.60;;;2.60;;
9665;SDS011;4871;52.004;5.924;2023-08-17T02:34:05;3.60;;;2.60;;
9665;SDS011;4871;52.004;5.924;2023-08-17T02:35:00;3.60;;;2.60;;
9665;SDS011;4871;52.004;5.924;2023-08-17T02:36:01;3.60;;;2.60;;
9665;SDS011;4871;52.004;5.924;2023-08-17T02:37:00;3.60;;;2.60;;
9665;SDS011;4871;52.004;5.924;2023-08-17T02:38:00;3.60;;;2.60;;
9665;SDS011;4871;52.004;5.924;2023-08-17T02:39:00;3.60;;;2.60;;
9665;SDS011;4871;52.004;5.924;2023-08-17T02:40:00;3.60;;;2.60;;
9665;SDS011;4871;52.004;5.924;2023-08-17T02:41:00;3.60;;;2.60;;
9665;SDS011;4871;52.004;5.924;2023-08-17T02:42:00;3.60;;;2.60;;
9665;SDS011;4871;52.004;5.924;2023-08-17T02:43:00;3.60;;;2.60;;
9665;SDS011;4871;52.004;5.924;2023-08-17T02:44:01;3.60;;;2.60;;
9665;SDS011;4871;52.004;5.924;2023-08-17T02:45:00;3.60;;;2.60;;
9665;SDS011;4871;52.004;5.924;2023-08-17T02:46:00;3.60;;;2.60;;
9665;SDS011;4871;52.004;5.924;2023-08-17T02:47:00;3.60;;;2.60;;
9665;SDS011;4871;52.004;5.924;2023-08-17T02:48:00;3.60;;;2.60;;
9665;SDS011;4871;52.004;5.924;2023-08-17T02:49:00;3.60;;;2.60;;
9665;SDS011;4871;52.004;5.924;2023-08-17T02:50:00;3.60;;;2.60;;
9665;SDS011;4871;52.004;5.924;2023-08-17T02:51:00;3.60;;;2.60;;
9665;SDS011;4871;52.004;5.924;2023-08-17T02:52:00;3.30;;;2.40;;
9665;SDS011;4871;52.004;5.924;2023-08-17T02:53:02;3.30;;;2.40;;
9665;SDS011;4871;52.004;5.924;2023-08-17T02:54:00;3.30;;;2.40;;
9665;SDS011;4871;52.004;5.924;2023-08-17T02:55:00;3.30;;;2.40;;
9665;SDS011;4871;52.004;5.924;2023-08-17T02:56:00;3.30;;;2.40;;
9665;SDS011;4871;52.004;5.924;2023-08-17T02:57:00;3.30;;;2.40;;
9665;SDS011;4871;52.004;5.924;2023-08-17T02:58:00;3.30;;;2.40;;
9665;SDS011;4871;52.004;5.924;2023-08-17T02:59:00;3.30;;;2.40;;
9665;SDS011;4871;52.004;5.924;2023-08-17T03:00:00;3.30;;;2.40;;
9665;SDS011;4871;52.004;5.924;2023-08-17T03:01:02;3.30;;;2.40;;
9665;SDS011;4871;52.004;5.924;2023-08-17T03:02:00;3.30;;;2.40;;
9665;SDS011;4871;52.004;5.924;2023-08-17T03:03:00;3.30;;;2.40;;
9665;SDS011;4871;52.004;5.924;2023-08-17T03:04:00;3.30;;;2.40;;
9665;SDS011;4871;52.004;5.924;2023-08-17T03:05:00;3.30;;;2.40;;
9665;SDS011;4871;52.004;5.924;2023-08-17T03:06:01;3.30;;;2.40;;
9665;SDS011;4871;52.004;5.924;2023-08-17T03:07:00;3.30;;;2.40;;
9665;SDS011;4871;52.004;5.924;2023-08-17T03:08:00;3.30;;;2.40;;
9665;SDS011;4871;52.004;5.924;2023-08-17T03:09:00;3.30;;;2.40;;
9665;SDS011;4871;52.004;5.924;2023-08-17T03:10:00;3.30;;;2.40;;
9665;SDS011;4871;52.004;5.924;2023-08-17T03:11:00;3.30;;;2.40;;
9665;SDS011;4871;52.004;5.924;2023-08-17T03:12:00;3.30;;;2.40;;
9665;SDS011;4871;52.004;5.924;2023-08-17T03:13:00;3.30;;;2.40;;
9665;SDS011;4871;52.004;5.924;2023-08-17T03:14:00;3.30;;;2.40;;
9665;SDS011;4871;52.004;5.924;2023-08-17T03:15:00;3.30;;;2.40;;
9665;SDS011;4871;52.004;5.924;2023-08-17T03:16:00;3.30;;;2.40;;
9665;SDS011;4871;52.004;5.924;2023-08-17T03:17:00;3.30;;;2.40;;
9665;SDS011;4871;52.004;5.924;2023-08-17T03:18:00;3.30;;;2.40;;
9665;SDS011;4871;52.004;5.924;2023-08-17T03:19:00;3.30;;;2.40;;
9665;SDS011;4871;52.004;5.924;2023-08-17T03:20:00;3.30;;;2.40;;
9665;SDS011;4871;52.004;5.924;2023-08-17T03:21:00;3.30;;;2.40;;
9665;SDS011;4871;52.004;5.924;2023-08-17T03:22:00;3.20;;;2.40;;
9665;SDS011;4871;52.004;5.924;2023-08-17T03:23:00;3.20;;;2.40;;
9665;SDS011;4871;52.004;5.924;2023-08-17T03:24:00;3.20;;;2.40;;
9665;SDS011;4871;52.004;5.924;2023-08-17T03:25:00;3.20;;;2.40;;
9665;SDS011;4871;52.004;5.924;2023-08-17T03:26:00;3.20;;;2.40;;
9665;SDS011;4871;52.004;5.924;2023-08-17T03:27:00;3.20;;;2.40;;
9665;SDS011;4871;52.004;5.924;2023-08-17T03:28:00;3.20;;;2.40;;
9665;SDS011;4871;52.004;5.924;2023-08-17T03:29:00;3.20;;;2.40;;
9665;SDS011;4871;52.004;5.924;2023-08-17T03:30:00;3.20;;;2.40;;
9665;SDS011;4871;52.004;5.924;2023-08-17T03:31:00;3.20;;;2.40;;
9665;SDS011;4871;52.004;5.924;2023-08-17T03:32:00;3.20;;;2.40;;
9665;SDS011;4871;52.004;5.924;2023-08-17T03:33:00;3.20;;;2.40;;
9665;SDS011;4871;52.004;5.924;2023-08-17T03:34:01;3.20;;;2.40;;
9665;SDS011;4871;52.004;5.924;2023-08-17T03:35:00;3.20;;;2.40;;
9665;SDS011;4871;52.004;5.924;2023-08-17T03:36:00;3.20;;;2.40;;
9665;SDS011;4871;52.004;5.924;2023-08-17T03:37:00;3.20;;;2.40;;
9665;SDS011;4871;52.004;5.924;2023-08-17T03:38:00;3.20;;;2.40;;
9665;SDS011;4871;52.004;5.924;2023-08-17T03:39:00;3.20;;;2.40;;
9665;SDS011;4871;52.004;5.924;2023-08-17T03:40:01;3.20;;;2.40;;
9665;SDS011;4871;52.004;5.924;2023-08-17T03:41:01;3.20;;;2.40;;
9665;SDS011;4871;52.004;5.924;2023-08-17T03:42:00;3.20;;;2.40;;
9665;SDS011;4871;52.004;5.924;2023-08-17T03:43:00;3.20;;;2.40;;
9665;SDS011;4871;52.004;5.924;2023-08-17T03:44:00;3.20;;;2.40;;
9665;SDS011;4871;52.004;5.924;2023-08-17T03:45:00;3.20;;;2.40;;
9665;SDS011;4871;52.004;5.924;2023-08-17T03:46:00;3.20;;;2.40;;
9665;SDS011;4871;52.004;5.924;2023-08-17T03:47:00;3.20;;;2.40;;
9665;SDS011;4871;52.004;5.924;2023-08-17T03:48:00;3.20;;;2.40;;
9665;SDS011;4871;52.004;5.924;2023-08-17T03:49:00;3.20;;;2.40;;
9665;SDS011;4871;52.004;5.924;2023-08-17T03:50:00;3.20;;;2.40;;
9665;SDS011;4871;52.004;5.924;2023-08-17T03:51:01;3.20;;;2.40;;
9665;SDS011;4871;52.004;5.924;2023-08-17T03:52:00;4.00;;;2.50;;
9665;SDS011;4871;52.004;5.924;2023-08-17T03:53:00;4.00;;;2.50;;
9665;SDS011;4871;52.004;5.924;2023-08-17T03:54:00;4.00;;;2.50;;
9665;SDS011;4871;52.004;5.924;2023-08-17T03:55:00;4.00;;;2.50;;
9665;SDS011;4871;52.004;5.924;2023-08-17T03:56:00;4.00;;;2.50;;
9665;SDS011;4871;52.004;5.924;2023-08-17T03:57:00;4.00;;;2.50;;
9665;SDS011;4871;52.004;5.924;2023-08-17T03:58:00;4.00;;;2.50;;
9665;SDS011;4871;52.004;5.924;2023-08-17T03:59:00;4.00;;;2.50;;
9665;SDS011;4871;52.004;5.924;2023-08-17T04:00:00;4.00;;;2.50;;
9665;SDS011;4871;52.004;5.924;2023-08-17T04:01:00;4.00;;;2.50;;
9665;SDS011;4871;52.004;5.924;2023-08-17T04:02:00;4.00;;;2.50;;
9665;SDS011;4871;52.004;5.924;2023-08-17T04:03:00;4.00;;;2.50;;
9665;SDS011;4871;52.004;5.924;2023-08-17T04:04:00;4.00;;;2.50;;
9665;SDS011;4871;52.004;5.924;2023-08-17T04:05:00;4.00;;;2.50;;
9665;SDS011;4871;52.004;5.924;2023-08-17T04:06:03;4.00;;;2.50;;
9665;SDS011;4871;52.004;5.924;2023-08-17T04:07:00;4.00;;;2.50;;
9665;SDS011;4871;52.004;5.924;2023-08-17T04:08:02;4.00;;;2.50;;
9665;SDS011;4871;52.004;5.924;2023-08-17T04:09:00;4.00;;;2.50;;
9665;SDS011;4871;52.004;5.924;2023-08-17T04:10:00;4.00;;;2.50;;
9665;SDS011;4871;52.004;5.924;2023-08-17T04:11:00;4.00;;;2.50;;
9665;SDS011;4871;52.004;5.924;2023-08-17T04:12:00;4.00;;;2.50;;
9665;SDS011;4871;52.004;5.924;2023-08-17T04:13:00;4.00;;;2.50;;
9665;SDS011;4871;52.004;5.924;2023-08-17T04:14:00;4.00;;;2.50;;
9665;SDS011;4871;52.004;5.924;2023-08-17T04:15:00;4.00;;;2.50;;
9665;SDS011;4871;52.004;5.924;2023-08-17T04:16:00;4.00;;;2.50;;
9665;SDS011;4871;52.004;5.924;2023-08-17T04:17:00;4.00;;;2.50;;
9665;SDS011;4871;52.004;5.924;2023-08-17T04:18:00;4.00;;;2.50;;
9665;SDS011;4871;52.004;5.924;2023-08-17T04:19:00;4.00;;;2.50;;
9665;SDS011;4871;52.004;5.924;2023-08-17T04:20:00;4.00;;;2.50;;
9665;SDS011;4871;52.004;5.924;2023-08-17T04:21:00;4.00;;;2.50;;
9665;SDS011;4871;52.004;5.924;2023-08-17T04:22:00;4.60;;;2.30;;
9665;SDS011;4871;52.004;5.924;2023-08-17T04:23:00;4.60;;;2.30;;
9665;SDS011;4871;52.004;5.924;2023-08-17T04:24:00;4.60;;;2.30;;
9665;SDS011;4871;52.004;5.924;2023-08-17T04:25:00;4.60;;;2.30;;
9665;SDS011;4871;52.004;5.924;2023-08-17T04:26:00;4.60;;;2.30;;
9665;SDS011;4871;52.004;5.924;2023-08-17T04:27:00;4.60;;;2.30;;
9665;SDS011;4871;52.004;5.924;2023-08-17T04:28:00;4.60;;;2.30;;
9665;SDS011;4871;52.004;5.924;2023-08-17T04:29:00;4.60;;;2.30;;
9665;SDS011;4871;52.004;5.924;2023-08-17T04:30:00;4.60;;;2.30;;
9665;SDS011;4871;52.004;5.924;2023-08-17T04:31:00;4.60;;;2.30;;
9665;SDS011;4871;52.004;5.924;2023-08-17T04:32:00;4.60;;;2.30;;
9665;SDS011;4871;52.004;5.924;2023-08-17T04:33:00;4.60;;;2.30;;
9665;SDS011;4871;52.004;5.924;2023-08-17T04:34:00;4.60;;;2.30;;
9665;SDS011;4871;52.004;5.924;2023-08-17T04:35:00;4.60;;;2.30;;
9665;SDS011;4871;52.004;5.924;2023-08-17T04:36:00;4.60;;;2.30;;
9665;SDS011;4871;52.004;5.924;2023-08-17T04:37:00;4.60;;;2.30;;
9665;SDS011;4871;52.004;5.924;2023-08-17T04:38:00;4.60;;;2.30;;
9665;SDS011;4871;52.004;5.924;2023-08-17T04:39:00;4.60;;;2.30;;
9665;SDS011;4871;52.004;5.924;2023-08-17T04:40:00;4.60;;;2.30;;
9665;SDS011;4871;52.004;5.924;2023-08-17T04:41:00;4.60;;;2.30;;
9665;SDS011;4871;52.004;5.924;2023-08-17T04:42:00;4.60;;;2.30;;
9665;SDS011;4871;52.004;5.924;2023-08-17T04:43:00;4.60;;;2.30;;
9665;SDS011;4871;52.004;5.924;2023-08-17T04:44:00;4.60;;;2.30;;
9665;SDS011;4871;52.004;5.924;2023-08-17T04:45:00;4.60;;;2.30;;
9665;SDS011;4871;52.004;5.924;2023-08-17T04:46:00;4.60;;;2.30;;
9665;SDS011;4871;52.004;5.924;2023-08-17T04:47:00;4.60;;;2.30;;
9665;SDS011;4871;52.004;5.924;2023-08-17T04:48:00;4.60;;;2.30;;
9665;SDS011;4871;52.004;5.924;2023-08-17T04:49:00;4.60;;;2.30;;
9665;SDS011;4871;52.004;5.924;2023-08-17T04:50:00;4.60;;;2.30;;
9665;SDS011;4871;52.004;5.924;2023-08-17T04:51:00;4.60;;;2.30;;
9665;SDS011;4871;52.004;5.924;2023-08-17T04:52:00;2.90;;;2.20;;
9665;SDS011;4871;52.004;5.924;2023-08-17T04:53:00;2.90;;;2.20;;
9665;SDS011;4871;52.004;5.924;2023-08-17T04:54:00;2.90;;;2.20;;
9665;SDS011;4871;52.004;5.924;2023-08-17T04:55:00;2.90;;;2.20;;
9665;SDS011;4871;52.004;5.924;2023-08-17T04:56:00;2.90;;;2.20;;
9665;SDS011;4871;52.004;5.924;2023-08-17T04:57:00;2.90;;;2.20;;
9665;SDS011;4871;52.004;5.924;2023-08-17T04:58:00;2.90;;;2.20;;
9665;SDS011;4871;52.004;5.924;2023-08-17T04:59:00;2.90;;;2.20;;
9665;SDS011;4871;52.004;5.924;2023-08-17T05:00:00;2.90;;;2.20;;
9665;SDS011;4871;52.004;5.924;2023-08-17T05:01:00;2.90;;;2.20;;
9665;SDS011;4871;52.004;5.924;2023-08-17T05:02:00;2.90;;;2.20;;
9665;SDS011;4871;52.004;5.924;2023-08-17T05:03:00;2.90;;;2.20;;
9665;SDS011;4871;52.004;5.924;2023-08-17T05:04:00;2.90;;;2.20;;
9665;SDS011;4871;52.004;5.924;2023-08-17T05:05:02;2.90;;;2.20;;
9665;SDS011;4871;52.004;5.924;2023-08-17T05:06:00;2.90;;;2.20;;
9665;SDS011;4871;52.004;5.924;2023-08-17T05:07:00;2.90;;;2.20;;
9665;SDS011;4871;52.004;5.924;2023-08-17T05:08:00;2.90;;;2.20;;
9665;SDS011;4871;52.004;5.924;2023-08-17T05:09:00;2.90;;;2.20;;
9665;SDS011;4871;52.004;5.924;2023-08-17T05:10:00;2.90;;;2.20;;
9665;SDS011;4871;52.004;5.924;2023-08-17T05:11:00;2.90;;;2.20;;
9665;SDS011;4871;52.004;5.924;2023-08-17T05:12:00;2.90;;;2.20;;
9665;SDS011;4871;52.004;5.924;2023-08-17T05:13:00;2.90;;;2.20;;
9665;SDS011;4871;52.004;5.924;2023-08-17T05:14:00;2.90;;;2.20;;
9665;SDS011;4871;52.004;5.924;2023-08-17T05:15:00;2.90;;;2.20;;
9665;SDS011;4871;52.004;5.924;2023-08-17T05:16:00;2.90;;;2.20;;
9665;SDS011;4871;52.004;5.924;2023-08-17T05:17:00;2.90;;;2.20;;
9665;SDS011;4871;52.004;5.924;2023-08-17T05:18:00;2.90;;;2.20;;
9665;SDS011;4871;52.004;5.924;2023-08-17T05:19:00;2.90;;;2.20;;
9665;SDS011;4871;52.004;5.924;2023-08-17T05:20:00;2.90;;;2.20;;
9665;SDS011;4871;52.004;5.924;2023-08-17T05:21:00;2.90;;;2.20;;
9665;SDS011;4871;52.004;5.924;2023-08-17T05:22:00;3.50;;;2.20;;
9665;SDS011;4871;52.004;5.924;2023-08-17T05:23:00;3.50;;;2.20;;
9665;SDS011;4871;52.004;5.924;2023-08-17T05:24:00;3.50;;;2.20;;
9665;SDS011;4871;52.004;5.924;2023-08-17T05:25:00;3.50;;;2.20;;
9665;SDS011;4871;52.004;5.924;2023-08-17T05:26:00;3.50;;;2.20;;
9665;SDS011;4871;52.004;5.924;2023-08-17T05:27:00;3.50;;;2.20;;
9665;SDS011;4871;52.004;5.924;2023-08-17T05:28:00;3.50;;;2.20;;
9665;SDS011;4871;52.004;5.924;2023-08-17T05:29:00;3.50;;;2.20;;
9665;SDS011;4871;52.004;5.924;2023-08-17T05:30:00;3.50;;;2.20;;
9665;SDS011;4871;52.004;5.924;2023-08-17T05:31:02;3.50;;;2.20;;
9665;SDS011;4871;52.004;5.924;2023-08-17T05:32:00;3.50;;;2.20;;
9665;SDS011;4871;52.004;5.924;2023-08-17T05:33:00;3.50;;;2.20;;
9665;SDS011;4871;52.004;5.924;2023-08-17T05:34:00;3.50;;;2.20;;
9665;SDS011;4871;52.004;5.924;2023-08-17T05:35:00;3.50;;;2.20;;
9665;SDS011;4871;52.004;5.924;2023-08-17T05:36:00;3.50;;;2.20;;
9665;SDS011;4871;52.004;5.924;2023-08-17T05:37:00;3.50;;;2.20;;
9665;SDS011;4871;52.004;5.924;2023-08-17T05:38:01;3.50;;;2.20;;
9665;SDS011;4871;52.004;5.924;2023-08-17T05:39:00;3.50;;;2.20;;
9665;SDS011;4871;52.004;5.924;2023-08-17T05:40:00;3.50;;;2.20;;
9665;SDS011;4871;52.004;5.924;2023-08-17T05:41:01;3.50;;;2.20;;
9665;SDS011;4871;52.004;5.924;2023-08-17T05:42:00;3.50;;;2.20;;
9665;SDS011;4871;52.004;5.924;2023-08-17T05:43:00;3.50;;;2.20;;
9665;SDS011;4871;52.004;5.924;2023-08-17T05:44:00;3.50;;;2.20;;
9665;SDS011;4871;52.004;5.924;2023-08-17T05:45:00;3.50;;;2.20;;
9665;SDS011;4871;52.004;5.924;2023-08-17T05:46:00;3.50;;;2.20;;
9665;SDS011;4871;52.004;5.924;2023-08-17T05:47:00;3.50;;;2.20;;
9665;SDS011;4871;52.004;5.924;2023-08-17T05:48:00;3.50;;;2.20;;
9665;SDS011;4871;52.004;5.924;2023-08-17T05:49:00;3.50;;;2.20;;
9665;SDS011;4871;52.004;5.924;2023-08-17T05:50:00;3.50;;;2.20;;
9665;SDS011;4871;52.004;5.924;2023-08-17T05:51:00;3.50;;;2.20;;
9665;SDS011;4871;52.004;5.924;2023-08-17T05:52:00;2.70;;;2.30;;
9665;SDS011;4871;52.004;5.924;2023-08-17T05:53:00;2.70;;;2.30;;
9665;SDS011;4871;52.004;5.924;2023-08-17T05:54:00;2.70;;;2.30;;
9665;SDS011;4871;52.004;5.924;2023-08-17T05:55:00;2.70;;;2.30;;
9665;SDS011;4871;52.004;5.924;2023-08-17T05:56:00;2.70;;;2.30;;
9665;SDS011;4871;52.004;5.924;2023-08-17T05:57:01;2.70;;;2.30;;
9665;SDS011;4871;52.004;5.924;2023-08-17T05:58:00;2.70;;;2.30;;
9665;SDS011;4871;52.004;5.924;2023-08-17T05:59:00;2.70;;;2.30;;
9665;SDS011;4871;52.004;5.924;2023-08-17T06:00:00;2.70;;;2.30;;
9665;SDS011;4871;52.004;5.924;2023-08-17T06:01:04;2.70;;;2.30;;
9665;SDS011;4871;52.004;5.924;2023-08-17T06:02:00;2.70;;;2.30;;
9665;SDS011;4871;52.004;5.924;2023-08-17T06:03:01;2.70;;;2.30;;
9665;SDS011;4871;52.004;5.924;2023-08-17T06:04:00;2.70;;;2.30;;
9665;SDS011;4871;52.004;5.924;2023-08-17T06:05:00;2.70;;;2.30;;
9665;SDS011;4871;52.004;5.924;2023-08-17T06:06:00;2.70;;;2.30;;
9665;SDS011;4871;52.004;5.924;2023-08-17T06:07:00;2.70;;;2.30;;
9665;SDS011;4871;52.004;5.924;2023-08-17T06:08:00;2.70;;;2.30;;
9665;SDS011;4871;52.004;5.924;2023-08-17T06:09:00;2.70;;;2.30;;
9665;SDS011;4871;52.004;5.924;2023-08-17T06:10:01;2.70;;;2.30;;
9665;SDS011;4871;52.004;5.924;2023-08-17T06:11:00;2.70;;;2.30;;
9665;SDS011;4871;52.004;5.924;2023-08-17T06:12:00;2.70;;;2.30;;